sensor_id;sensor_type;location;lat;lon;timestamp;temperature;humidity
51902;DHT22;37929;53.218;6.548;2023-04-03T00:00:26;4.30;99.90
51902;DHT22;37929;53.218;6.548;2023-04-03T00:02:55;4.30;99.90
51902;DHT22;37929;53.218;6.548;2023-04-03T00:05:21;4.30;99.90
51902;DHT22;37929;53.218;6.548;2023-04-03T00:07:47;5.10;99.90
51902;DHT22;37929;53.218;6.548;2023-04-03T00:10:15;5.10;99.90
51902;DHT22;37929;53.218;6.548;2023-04-03T00:12:41;4.30;99.90
51902;DHT22;37929;53.218;6.548;2023-04-03T00:15:07;4.30;99.90
51902;DHT22;37929;53.218;6.548;2023-04-03T00:17:33;4.30;99.90
51902;DHT22;37929;53.218;6.548;2023-04-03T00:19:59;4.20;99.90
51902;DHT22;37929;53.218;6.548;2023-04-03T00:22:25;4.10;99.90
51902;DHT22;37929;53.218;6.548;2023-04-03T00:24:54;4.10;99.90
51902;DHT22;37929;53.218;6.548;2023-04-03T00:27:20;4.20;99.90
51902;DHT22;37929;53.218;6.548;2023-04-03T00:29:46;4.10;99.90
51902;DHT22;37929;53.218;6.548;2023-04-03T00:32:12;4.10;99.90
51902;DHT22;37929;53.218;6.548;2023-04-03T00:34:38;4.80;99.90
51902;DHT22;37929;53.218;6.548;2023-04-03T00:37:04;5.00;99.90
51902;DHT22;37929;53.218;6.548;2023-04-03T00:39:30;4.50;99.90
51902;DHT22;37929;53.218;6.548;2023-04-03T00:41:56;3.90;99.90
51902;DHT22;37929;53.218;6.548;2023-04-03T00:46:56;4.70;99.90
51902;DHT22;37929;53.218;6.548;2023-04-03T00:49:22;4.10;99.90
51902;DHT22;37929;53.218;6.548;2023-04-03T00:51:48;3.80;99.90
51902;DHT22;37929;53.218;6.548;2023-04-03T00:54:14;3.80;99.90
51902;DHT22;37929;53.218;6.548;2023-04-03T00:56:40;3.90;99.90
51902;DHT22;37929;53.218;6.548;2023-04-03T00:59:12;3.90;99.90
51902;DHT22;37929;53.218;6.548;2023-04-03T01:01:43;3.80;99.90
51902;DHT22;37929;53.218;6.548;2023-04-03T01:07:02;4.00;99.90
51902;DHT22;37929;53.218;6.548;2023-04-03T01:09:29;3.80;99.90
51902;DHT22;37929;53.218;6.548;2023-04-03T01:12:23;3.80;99.90
51902;DHT22;37929;53.218;6.548;2023-04-03T01:14:52;3.60;99.90
51902;DHT22;37929;53.218;6.548;2023-04-03T01:25:29;3.50;99.90
51902;DHT22;37929;53.218;6.548;2023-04-03T01:27:55;4.10;99.90
51902;DHT22;37929;53.218;6.548;2023-04-03T01:30:25;3.40;99.90
51902;DHT22;37929;53.218;6.548;2023-04-03T01:32:51;3.40;99.90
51902;DHT22;37929;53.218;6.548;2023-04-03T01:35:17;4.00;99.90
51902;DHT22;37929;53.218;6.548;2023-04-03T01:37:43;3.30;99.90
51902;DHT22;37929;53.218;6.548;2023-04-03T01:40:09;3.30;99.90
51902;DHT22;37929;53.218;6.548;2023-04-03T01:42:34;3.30;99.90
51902;DHT22;37929;53.218;6.548;2023-04-03T01:45:03;3.20;99.90
51902;DHT22;37929;53.218;6.548;2023-04-03T01:47:29;3.20;99.90
51902;DHT22;37929;53.218;6.548;2023-04-03T01:49:55;4.50;99.90
51902;DHT22;37929;53.218;6.548;2023-04-03T01:52:21;3.20;99.90
51902;DHT22;37929;53.218;6.548;2023-04-03T01:54:46;3.30;99.90
51902;DHT22;37929;53.218;6.548;2023-04-03T01:57:12;3.20;99.90
51902;DHT22;37929;53.218;6.548;2023-04-03T01:59:40;3.00;99.90
51902;DHT22;37929;53.218;6.548;2023-04-03T02:02:06;3.00;99.90
51902;DHT22;37929;53.218;6.548;2023-04-03T02:04:33;3.00;99.90
51902;DHT22;37929;53.218;6.548;2023-04-03T02:07:04;3.10;99.90
51902;DHT22;37929;53.218;6.548;2023-04-03T02:09:32;3.00;99.90
51902;DHT22;37929;53.218;6.548;2023-04-03T02:11:58;3.00;99.90
51902;DHT22;37929;53.218;6.548;2023-04-03T02:14:24;3.50;99.90
51902;DHT22;37929;53.218;6.548;2023-04-03T02:16:50;3.00;99.90
51902;DHT22;37929;53.218;6.548;2023-04-03T02:19:19;3.00;99.90
51902;DHT22;37929;53.218;6.548;2023-04-03T02:21:44;3.40;99.90
51902;DHT22;37929;53.218;6.548;2023-04-03T02:24:10;4.20;99.90
51902;DHT22;37929;53.218;6.548;2023-04-03T02:26:36;2.80;99.90
51902;DHT22;37929;53.218;6.548;2023-04-03T02:29:02;2.90;99.90
51902;DHT22;37929;53.218;6.548;2023-04-03T02:31:28;2.80;99.90
51902;DHT22;37929;53.218;6.548;2023-04-03T02:33:54;2.80;99.90
51902;DHT22;37929;53.218;6.548;2023-04-03T02:36:20;2.80;99.90
51902;DHT22;37929;53.218;6.548;2023-04-03T02:38:45;2.80;99.90
51902;DHT22;37929;53.218;6.548;2023-04-03T02:41:12;2.90;99.90
51902;DHT22;37929;53.218;6.548;2023-04-03T02:43:38;2.80;99.90
51902;DHT22;37929;53.218;6.548;2023-04-03T02:46:05;2.80;99.90
51902;DHT22;37929;53.218;6.548;2023-04-03T02:48:31;3.40;99.90
51902;DHT22;37929;53.218;6.548;2023-04-03T02:50:57;2.70;99.90
51902;DHT22;37929;53.218;6.548;2023-04-03T02:53:23;2.70;99.90
51902;DHT22;37929;53.218;6.548;2023-04-03T02:55:49;2.70;99.90
51902;DHT22;37929;53.218;6.548;2023-04-03T02:58:15;2.70;99.90
51902;DHT22;37929;53.218;6.548;2023-04-03T03:00:41;2.70;99.90
51902;DHT22;37929;53.218;6.548;2023-04-03T03:03:07;2.60;99.90
51902;DHT22;37929;53.218;6.548;2023-04-03T03:05:33;2.70;99.90
51902;DHT22;37929;53.218;6.548;2023-04-03T03:07:59;2.70;99.90
51902;DHT22;37929;53.218;6.548;2023-04-03T03:10:25;3.70;99.90
51902;DHT22;37929;53.218;6.548;2023-04-03T03:12:51;2.70;99.90
51902;DHT22;37929;53.218;6.548;2023-04-03T03:15:16;2.60;99.90
51902;DHT22;37929;53.218;6.548;2023-04-03T03:17:43;2.50;99.90
51902;DHT22;37929;53.218;6.548;2023-04-03T03:20:09;2.60;99.90
51902;DHT22;37929;53.218;6.548;2023-04-03T03:22:35;2.60;99.90
51902;DHT22;37929;53.218;6.548;2023-04-03T03:25:02;2.50;99.90
51902;DHT22;37929;53.218;6.548;2023-04-03T03:27:28;2.60;99.90
51902;DHT22;37929;53.218;6.548;2023-04-03T03:29:54;2.80;99.90
51902;DHT22;37929;53.218;6.548;2023-04-03T03:32:20;2.70;99.90
51902;DHT22;37929;53.218;6.548;2023-04-03T03:34:46;2.70;99.90
51902;DHT22;37929;53.218;6.548;2023-04-03T03:37:12;2.80;99.90
51902;DHT22;37929;53.218;6.548;2023-04-03T03:39:37;2.80;99.90
51902;DHT22;37929;53.218;6.548;2023-04-03T03:42:03;2.80;99.90
51902;DHT22;37929;53.218;6.548;2023-04-03T03:44:29;2.80;99.90
51902;DHT22;37929;53.218;6.548;2023-04-03T03:46:55;3.10;99.90
51902;DHT22;37929;53.218;6.548;2023-04-03T03:49:22;2.70;99.90
51902;DHT22;37929;53.218;6.548;2023-04-03T03:51:47;3.50;99.90
51902;DHT22;37929;53.218;6.548;2023-04-03T03:54:13;3.00;99.90
51902;DHT22;37929;53.218;6.548;2023-04-03T03:56:39;2.60;99.90
51902;DHT22;37929;53.218;6.548;2023-04-03T03:59:05;2.60;99.90
51902;DHT22;37929;53.218;6.548;2023-04-03T04:01:32;3.10;99.90
51902;DHT22;37929;53.218;6.548;2023-04-03T04:03:58;3.40;99.90
51902;DHT22;37929;53.218;6.548;2023-04-03T04:06:23;2.60;99.90
51902;DHT22;37929;53.218;6.548;2023-04-03T04:08:49;2.60;99.90
51902;DHT22;37929;53.218;6.548;2023-04-03T04:11:15;2.60;99.90
51902;DHT22;37929;53.218;6.548;2023-04-03T04:13:41;2.60;99.90
51902;DHT22;37929;53.218;6.548;2023-04-03T04:16:07;2.70;99.90
51902;DHT22;37929;53.218;6.548;2023-04-03T04:18:33;2.60;99.90
51902;DHT22;37929;53.218;6.548;2023-04-03T04:20:59;3.60;99.90
51902;DHT22;37929;53.218;6.548;2023-04-03T04:23:25;3.40;99.90
51902;DHT22;37929;53.218;6.548;2023-04-03T04:25:51;3.70;99.90
51902;DHT22;37929;53.218;6.548;2023-04-03T04:28:17;2.40;99.90
51902;DHT22;37929;53.218;6.548;2023-04-03T04:30:43;2.40;99.90
51902;DHT22;37929;53.218;6.548;2023-04-03T04:33:09;2.40;99.90
51902;DHT22;37929;53.218;6.548;2023-04-03T04:35:35;2.30;99.90
51902;DHT22;37929;53.218;6.548;2023-04-03T04:38:01;2.30;99.90
51902;DHT22;37929;53.218;6.548;2023-04-03T04:40:28;2.20;99.90
51902;DHT22;37929;53.218;6.548;2023-04-03T04:42:54;2.70;99.90
51902;DHT22;37929;53.218;6.548;2023-04-03T04:45:20;2.20;99.90
51902;DHT22;37929;53.218;6.548;2023-04-03T04:47:46;2.20;99.90
51902;DHT22;37929;53.218;6.548;2023-04-03T04:50:12;2.10;99.90
51902;DHT22;37929;53.218;6.548;2023-04-03T04:52:38;2.10;99.90
51902;DHT22;37929;53.218;6.548;2023-04-03T04:55:05;2.30;99.90
51902;DHT22;37929;53.218;6.548;2023-04-03T04:57:30;2.10;99.90
51902;DHT22;37929;53.218;6.548;2023-04-03T04:59:56;2.00;99.90
51902;DHT22;37929;53.218;6.548;2023-04-03T05:02:22;2.00;99.90
51902;DHT22;37929;53.218;6.548;2023-04-03T05:04:48;1.90;99.90
51902;DHT22;37929;53.218;6.548;2023-04-03T05:07:15;2.40;99.90
51902;DHT22;37929;53.218;6.548;2023-04-03T05:09:41;1.90;99.90
51902;DHT22;37929;53.218;6.548;2023-04-03T05:12:08;1.80;99.90
51902;DHT22;37929;53.218;6.548;2023-04-03T05:14:33;1.90;99.90
51902;DHT22;37929;53.218;6.548;2023-04-03T05:16:59;2.10;99.90
51902;DHT22;37929;53.218;6.548;2023-04-03T05:19:25;1.80;99.90
51902;DHT22;37929;53.218;6.548;2023-04-03T05:21:50;1.80;99.90
51902;DHT22;37929;53.218;6.548;2023-04-03T05:24:19;1.80;99.90
51902;DHT22;37929;53.218;6.548;2023-04-03T05:26:45;1.80;99.90
51902;DHT22;37929;53.218;6.548;2023-04-03T05:29:11;1.80;99.90
51902;DHT22;37929;53.218;6.548;2023-04-03T05:31:39;2.70;99.90
51902;DHT22;37929;53.218;6.548;2023-04-03T05:34:05;1.70;99.90
51902;DHT22;37929;53.218;6.548;2023-04-03T05:36:34;1.70;99.90
51902;DHT22;37929;53.218;6.548;2023-04-03T05:39:00;1.70;99.90
51902;DHT22;37929;53.218;6.548;2023-04-03T05:41:26;1.70;99.90
51902;DHT22;37929;53.218;6.548;2023-04-03T05:43:52;2.10;99.90
51902;DHT22;37929;53.218;6.548;2023-04-03T05:46:19;2.10;99.90
51902;DHT22;37929;53.218;6.548;2023-04-03T05:48:46;1.60;99.90
51902;DHT22;37929;53.218;6.548;2023-04-03T05:51:20;2.10;99.90
51902;DHT22;37929;53.218;6.548;2023-04-03T05:53:47;1.60;99.90
51902;DHT22;37929;53.218;6.548;2023-04-03T05:56:14;1.60;99.90
51902;DHT22;37929;53.218;6.548;2023-04-03T05:58:43;1.60;99.90
51902;DHT22;37929;53.218;6.548;2023-04-03T06:01:11;2.50;99.90
51902;DHT22;37929;53.218;6.548;2023-04-03T06:03:38;1.90;99.90
51902;DHT22;37929;53.218;6.548;2023-04-03T06:06:05;2.30;99.90
51902;DHT22;37929;53.218;6.548;2023-04-03T06:08:31;1.60;99.90
51902;DHT22;37929;53.218;6.548;2023-04-03T06:10:59;2.20;99.90
51902;DHT22;37929;53.218;6.548;2023-04-03T06:13:25;1.70;99.90
51902;DHT22;37929;53.218;6.548;2023-04-03T06:15:51;1.70;99.90
51902;DHT22;37929;53.218;6.548;2023-04-03T06:18:16;2.20;99.90
51902;DHT22;37929;53.218;6.548;2023-04-03T06:20:45;1.80;99.90
51902;DHT22;37929;53.218;6.548;2023-04-03T06:23:11;1.80;99.90
51902;DHT22;37929;53.218;6.548;2023-04-03T06:25:39;2.50;99.90
51902;DHT22;37929;53.218;6.548;2023-04-03T06:28:06;1.90;99.90
51902;DHT22;37929;53.218;6.548;2023-04-03T06:30:34;2.00;99.90
51902;DHT22;37929;53.218;6.548;2023-04-03T06:33:00;2.00;99.90
51902;DHT22;37929;53.218;6.548;2023-04-03T06:35:26;2.00;99.90
51902;DHT22;37929;53.218;6.548;2023-04-03T06:37:54;3.10;99.90
51902;DHT22;37929;53.218;6.548;2023-04-03T06:40:22;2.00;99.90
51902;DHT22;37929;53.218;6.548;2023-04-03T06:42:52;2.20;99.90
51902;DHT22;37929;53.218;6.548;2023-04-03T06:45:17;2.10;99.90
51902;DHT22;37929;53.218;6.548;2023-04-03T06:47:43;3.00;99.90
51902;DHT22;37929;53.218;6.548;2023-04-03T06:50:11;2.70;99.90
51902;DHT22;37929;53.218;6.548;2023-04-03T06:52:40;2.30;99.90
51902;DHT22;37929;53.218;6.548;2023-04-03T06:55:06;2.30;99.90
51902;DHT22;37929;53.218;6.548;2023-04-03T06:57:32;2.20;99.90
51902;DHT22;37929;53.218;6.548;2023-04-03T06:59:58;2.60;99.90
51902;DHT22;37929;53.218;6.548;2023-04-03T07:02:24;2.70;99.90
51902;DHT22;37929;53.218;6.548;2023-04-03T07:04:50;2.30;99.90
51902;DHT22;37929;53.218;6.548;2023-04-03T07:07:16;2.40;99.90
51902;DHT22;37929;53.218;6.548;2023-04-03T07:09:43;3.10;99.90
51902;DHT22;37929;53.218;6.548;2023-04-03T07:12:08;2.50;99.90
51902;DHT22;37929;53.218;6.548;2023-04-03T07:14:34;2.50;99.90
51902;DHT22;37929;53.218;6.548;2023-04-03T07:17:00;2.50;99.90
51902;DHT22;37929;53.218;6.548;2023-04-03T07:19:26;2.60;99.90
51902;DHT22;37929;53.218;6.548;2023-04-03T07:21:53;2.60;99.90
51902;DHT22;37929;53.218;6.548;2023-04-03T07:24:19;2.70;99.90
51902;DHT22;37929;53.218;6.548;2023-04-03T07:26:52;2.70;99.90
51902;DHT22;37929;53.218;6.548;2023-04-03T07:29:18;3.60;99.90
51902;DHT22;37929;53.218;6.548;2023-04-03T07:31:45;2.90;99.90
51902;DHT22;37929;53.218;6.548;2023-04-03T07:34:11;2.90;99.90
51902;DHT22;37929;53.218;6.548;2023-04-03T07:36:37;3.00;99.90
51902;DHT22;37929;53.218;6.548;2023-04-03T07:39:03;3.00;99.90
51902;DHT22;37929;53.218;6.548;2023-04-03T07:41:29;3.00;99.90
51902;DHT22;37929;53.218;6.548;2023-04-03T07:43:56;3.10;99.90
51902;DHT22;37929;53.218;6.548;2023-04-03T07:46:22;4.10;99.90
51902;DHT22;37929;53.218;6.548;2023-04-03T07:48:48;5.40;99.90
51902;DHT22;37929;53.218;6.548;2023-04-03T07:51:14;5.60;99.90
51902;DHT22;37929;53.218;6.548;2023-04-03T07:53:40;6.70;99.90
51902;DHT22;37929;53.218;6.548;2023-04-03T07:56:07;7.60;99.90
51902;DHT22;37929;53.218;6.548;2023-04-03T07:58:33;8.10;99.90
51902;DHT22;37929;53.218;6.548;2023-04-03T08:00:59;8.10;99.90
51902;DHT22;37929;53.218;6.548;2023-04-03T08:03:25;8.30;99.90
51902;DHT22;37929;53.218;6.548;2023-04-03T08:05:51;8.20;99.90
51902;DHT22;37929;53.218;6.548;2023-04-03T08:08:20;8.60;99.90
51902;DHT22;37929;53.218;6.548;2023-04-03T08:11:10;9.50;99.90
51902;DHT22;37929;53.218;6.548;2023-04-03T08:13:36;9.30;99.90
51902;DHT22;37929;53.218;6.548;2023-04-03T08:16:12;9.50;99.90
51902;DHT22;37929;53.218;6.548;2023-04-03T08:18:39;9.50;99.90
51902;DHT22;37929;53.218;6.548;2023-04-03T08:21:15;8.70;99.90
51902;DHT22;37929;53.218;6.548;2023-04-03T08:23:41;9.00;99.90
51902;DHT22;37929;53.218;6.548;2023-04-03T08:26:13;9.10;99.90
51902;DHT22;37929;53.218;6.548;2023-04-03T08:28:39;9.70;99.90
51902;DHT22;37929;53.218;6.548;2023-04-03T08:31:14;9.30;99.90
51902;DHT22;37929;53.218;6.548;2023-04-03T08:33:41;9.20;99.90
51902;DHT22;37929;53.218;6.548;2023-04-03T08:36:16;8.90;99.90
51902;DHT22;37929;53.218;6.548;2023-04-03T08:38:42;8.60;99.90
51902;DHT22;37929;53.218;6.548;2023-04-03T08:41:16;8.50;99.90
51902;DHT22;37929;53.218;6.548;2023-04-03T08:49:10;8.90;99.90
51902;DHT22;37929;53.218;6.548;2023-04-03T08:51:44;8.80;99.90
51902;DHT22;37929;53.218;6.548;2023-04-03T08:54:27;8.70;99.90
51902;DHT22;37929;53.218;6.548;2023-04-03T08:57:02;8.90;99.90
51902;DHT22;37929;53.218;6.548;2023-04-03T08:59:34;9.30;99.90
51902;DHT22;37929;53.218;6.548;2023-04-03T09:02:21;9.40;99.90
51902;DHT22;37929;53.218;6.548;2023-04-03T09:04:48;9.00;99.90
51902;DHT22;37929;53.218;6.548;2023-04-03T09:07:21;8.90;99.90
51902;DHT22;37929;53.218;6.548;2023-04-03T09:09:48;9.70;99.90
51902;DHT22;37929;53.218;6.548;2023-04-03T09:12:27;9.30;99.90
51902;DHT22;37929;53.218;6.548;2023-04-03T09:22:57;9.40;99.90
51902;DHT22;37929;53.218;6.548;2023-04-03T09:25:27;9.80;99.90
51902;DHT22;37929;53.218;6.548;2023-04-03T09:27:53;10.00;99.90
51902;DHT22;37929;53.218;6.548;2023-04-03T09:30:23;10.40;99.90
51902;DHT22;37929;53.218;6.548;2023-04-03T09:32:52;10.70;99.90
51902;DHT22;37929;53.218;6.548;2023-04-03T09:35:29;11.10;99.90
51902;DHT22;37929;53.218;6.548;2023-04-03T09:38:18;11.10;98.60
51902;DHT22;37929;53.218;6.548;2023-04-03T09:40:48;11.60;99.30
51902;DHT22;37929;53.218;6.548;2023-04-03T09:43:19;12.10;97.70
51902;DHT22;37929;53.218;6.548;2023-04-03T09:45:47;12.50;97.30
51902;DHT22;37929;53.218;6.548;2023-04-03T09:50:58;12.40;95.00
51902;DHT22;37929;53.218;6.548;2023-04-03T09:53:41;12.30;91.50
51902;DHT22;37929;53.218;6.548;2023-04-03T09:58:45;12.30;91.40
51902;DHT22;37929;53.218;6.548;2023-04-03T10:01:32;12.50;91.30
51902;DHT22;37929;53.218;6.548;2023-04-03T10:06:42;12.40;89.30
51902;DHT22;37929;53.218;6.548;2023-04-03T10:09:25;12.90;92.50
51902;DHT22;37929;53.218;6.548;2023-04-03T10:12:11;12.80;91.50
51902;DHT22;37929;53.218;6.548;2023-04-03T10:28:37;12.30;90.00
51902;DHT22;37929;53.218;6.548;2023-04-03T10:42:20;10.90;88.30
51902;DHT22;37929;53.218;6.548;2023-04-03T10:45:26;10.70;85.80
51902;DHT22;37929;53.218;6.548;2023-04-03T10:48:20;10.30;83.20
51902;DHT22;37929;53.218;6.548;2023-04-03T10:50:52;10.30;86.00
51902;DHT22;37929;53.218;6.548;2023-04-03T10:53:39;10.30;84.50
51902;DHT22;37929;53.218;6.548;2023-04-03T10:58:56;10.30;84.40
51902;DHT22;37929;53.218;6.548;2023-04-03T11:01:29;10.30;82.40
51902;DHT22;37929;53.218;6.548;2023-04-03T11:03:57;10.20;78.20
51902;DHT22;37929;53.218;6.548;2023-04-03T11:06:26;9.90;77.90
51902;DHT22;37929;53.218;6.548;2023-04-03T11:09:09;10.00;82.90
51902;DHT22;37929;53.218;6.548;2023-04-03T11:11:39;10.10;83.10
51902;DHT22;37929;53.218;6.548;2023-04-03T11:14:29;10.10;82.60
51902;DHT22;37929;53.218;6.548;2023-04-03T11:20:18;10.10;80.60
51902;DHT22;37929;53.218;6.548;2023-04-03T11:22:50;9.90;78.10
51902;DHT22;37929;53.218;6.548;2023-04-03T11:25:23;9.90;81.10
51902;DHT22;37929;53.218;6.548;2023-04-03T11:28:04;10.10;82.40
51902;DHT22;37929;53.218;6.548;2023-04-03T11:36:22;10.50;82.00
51902;DHT22;37929;53.218;6.548;2023-04-03T11:38:55;10.60;81.60
51902;DHT22;37929;53.218;6.548;2023-04-03T11:41:30;10.70;82.30
51902;DHT22;37929;53.218;6.548;2023-04-03T11:44:00;10.90;86.00
51902;DHT22;37929;53.218;6.548;2023-04-03T11:46:49;10.90;83.00
51902;DHT22;37929;53.218;6.548;2023-04-03T12:00:59;10.30;83.60
51902;DHT22;37929;53.218;6.548;2023-04-03T12:05:55;10.60;79.10
51902;DHT22;37929;53.218;6.548;2023-04-03T12:19:39;11.00;81.90
51902;DHT22;37929;53.218;6.548;2023-04-03T12:22:15;11.10;84.80
51902;DHT22;37929;53.218;6.548;2023-04-03T12:24:44;11.30;85.90
51902;DHT22;37929;53.218;6.548;2023-04-03T12:35:24;11.10;80.00
51902;DHT22;37929;53.218;6.548;2023-04-03T12:38:24;11.00;81.00
51902;DHT22;37929;53.218;6.548;2023-04-03T12:41:18;11.10;81.40
51902;DHT22;37929;53.218;6.548;2023-04-03T12:46:53;11.10;79.70
51902;DHT22;37929;53.218;6.548;2023-04-03T12:49:41;11.20;83.50
51902;DHT22;37929;53.218;6.548;2023-04-03T12:52:32;11.10;79.60
51902;DHT22;37929;53.218;6.548;2023-04-03T12:55:00;11.70;83.20
51902;DHT22;37929;53.218;6.548;2023-04-03T12:57:30;11.30;83.20
51902;DHT22;37929;53.218;6.548;2023-04-03T12:59:56;11.30;79.00
51902;DHT22;37929;53.218;6.548;2023-04-03T13:02:43;11.40;81.50
51902;DHT22;37929;53.218;6.548;2023-04-03T13:05:16;11.60;79.50
51902;DHT22;37929;53.218;6.548;2023-04-03T13:08:11;11.50;78.60
51902;DHT22;37929;53.218;6.548;2023-04-03T13:13:17;11.40;74.80
51902;DHT22;37929;53.218;6.548;2023-04-03T13:15:46;11.60;78.10
51902;DHT22;37929;53.218;6.548;2023-04-03T13:18:26;11.80;78.40
51902;DHT22;37929;53.218;6.548;2023-04-03T13:20:52;11.90;76.80
51902;DHT22;37929;53.218;6.548;2023-04-03T13:23:23;12.00;76.40
51902;DHT22;37929;53.218;6.548;2023-04-03T13:25:52;12.10;78.80
51902;DHT22;37929;53.218;6.548;2023-04-03T13:28:23;12.10;78.90
51902;DHT22;37929;53.218;6.548;2023-04-03T13:36:24;12.10;80.80
51902;DHT22;37929;53.218;6.548;2023-04-03T13:41:38;11.60;80.40
51902;DHT22;37929;53.218;6.548;2023-04-03T13:46:56;11.90;77.20
51902;DHT22;37929;53.218;6.548;2023-04-03T13:49:39;11.70;76.60
51902;DHT22;37929;53.218;6.548;2023-04-03T13:52:30;11.80;79.10
51902;DHT22;37929;53.218;6.548;2023-04-03T13:55:20;11.80;79.20
51902;DHT22;37929;53.218;6.548;2023-04-03T14:01:07;11.70;79.80
51902;DHT22;37929;53.218;6.548;2023-04-03T14:03:28;11.80;82.10
51902;DHT22;37929;53.218;6.548;2023-04-03T14:05:57;11.70;83.00
51902;DHT22;37929;53.218;6.548;2023-04-03T14:08:29;11.80;83.30
51902;DHT22;37929;53.218;6.548;2023-04-03T14:10:55;11.80;84.60
51902;DHT22;37929;53.218;6.548;2023-04-03T14:13:22;11.70;84.70
51902;DHT22;37929;53.218;6.548;2023-04-03T14:15:48;11.50;85.00
51902;DHT22;37929;53.218;6.548;2023-04-03T14:18:18;11.80;85.80
51902;DHT22;37929;53.218;6.548;2023-04-03T14:20:45;11.90;86.00
51902;DHT22;37929;53.218;6.548;2023-04-03T14:23:11;12.00;85.90
51902;DHT22;37929;53.218;6.548;2023-04-03T14:25:40;11.90;86.00
51902;DHT22;37929;53.218;6.548;2023-04-03T14:28:15;11.70;84.00
51902;DHT22;37929;53.218;6.548;2023-04-03T14:30:45;11.70;86.40
51902;DHT22;37929;53.218;6.548;2023-04-03T14:33:17;11.70;87.80
51902;DHT22;37929;53.218;6.548;2023-04-03T14:35:44;11.60;87.30
51902;DHT22;37929;53.218;6.548;2023-04-03T14:38:26;11.60;87.00
51902;DHT22;37929;53.218;6.548;2023-04-03T14:40:53;11.60;86.80
51902;DHT22;37929;53.218;6.548;2023-04-03T14:43:19;11.50;87.30
51902;DHT22;37929;53.218;6.548;2023-04-03T14:45:47;11.50;87.60
51902;DHT22;37929;53.218;6.548;2023-04-03T14:48:21;11.40;85.30
51902;DHT22;37929;53.218;6.548;2023-04-03T14:50:48;11.40;86.40
51902;DHT22;37929;53.218;6.548;2023-04-03T14:53:15;11.30;87.50
51902;DHT22;37929;53.218;6.548;2023-04-03T14:55:47;11.40;88.40
51902;DHT22;37929;53.218;6.548;2023-04-03T14:58:20;11.40;88.60
51902;DHT22;37929;53.218;6.548;2023-04-03T15:00:46;11.50;88.60
51902;DHT22;37929;53.218;6.548;2023-04-03T15:03:17;11.40;88.80
51902;DHT22;37929;53.218;6.548;2023-04-03T15:05:44;11.30;89.00
51902;DHT22;37929;53.218;6.548;2023-04-03T15:08:28;11.20;90.00
51902;DHT22;37929;53.218;6.548;2023-04-03T15:10:55;11.20;90.30
51902;DHT22;37929;53.218;6.548;2023-04-03T15:13:23;10.90;88.60
51902;DHT22;37929;53.218;6.548;2023-04-03T15:16:12;11.00;90.20
51902;DHT22;37929;53.218;6.548;2023-04-03T15:18:44;11.00;90.80
51902;DHT22;37929;53.218;6.548;2023-04-03T15:21:10;11.70;90.80
51902;DHT22;37929;53.218;6.548;2023-04-03T15:23:36;10.60;88.30
51902;DHT22;37929;53.218;6.548;2023-04-03T15:26:15;10.40;88.60
51902;DHT22;37929;53.218;6.548;2023-04-03T15:28:53;10.40;90.60
51902;DHT22;37929;53.218;6.548;2023-04-03T15:31:33;10.40;90.90
51902;DHT22;37929;53.218;6.548;2023-04-03T15:34:05;10.50;90.60
51902;DHT22;37929;53.218;6.548;2023-04-03T15:36:54;10.50;91.00
51902;DHT22;37929;53.218;6.548;2023-04-03T15:39:39;10.50;90.90
51902;DHT22;37929;53.218;6.548;2023-04-03T15:42:07;10.50;89.60
51902;DHT22;37929;53.218;6.548;2023-04-03T15:44:37;10.40;90.00
51902;DHT22;37929;53.218;6.548;2023-04-03T15:47:05;9.60;90.60
51902;DHT22;37929;53.218;6.548;2023-04-03T15:49:35;10.40;90.60
51902;DHT22;37929;53.218;6.548;2023-04-03T15:52:04;10.30;90.70
51902;DHT22;37929;53.218;6.548;2023-04-03T15:54:38;10.30;90.80
51902;DHT22;37929;53.218;6.548;2023-04-03T15:57:16;10.20;90.90
51902;DHT22;37929;53.218;6.548;2023-04-03T16:00:32;10.20;90.60
51902;DHT22;37929;53.218;6.548;2023-04-03T16:02:55;10.20;90.80
51902;DHT22;37929;53.218;6.548;2023-04-03T16:05:24;10.00;91.10
51902;DHT22;37929;53.218;6.548;2023-04-03T16:07:51;10.00;91.60
51902;DHT22;37929;53.218;6.548;2023-04-03T16:10:23;10.00;91.70
51902;DHT22;37929;53.218;6.548;2023-04-03T16:12:49;9.90;91.80
51902;DHT22;37929;53.218;6.548;2023-04-03T16:15:15;9.90;91.50
51902;DHT22;37929;53.218;6.548;2023-04-03T16:17:47;9.80;91.90
51902;DHT22;37929;53.218;6.548;2023-04-03T16:20:23;9.80;92.20
51902;DHT22;37929;53.218;6.548;2023-04-03T16:22:50;9.80;92.00
51902;DHT22;37929;53.218;6.548;2023-04-03T16:25:21;9.80;92.20
51902;DHT22;37929;53.218;6.548;2023-04-03T16:27:47;9.90;91.80
51902;DHT22;37929;53.218;6.548;2023-04-03T16:30:13;9.70;92.20
51902;DHT22;37929;53.218;6.548;2023-04-03T16:32:42;9.60;91.90
51902;DHT22;37929;53.218;6.548;2023-04-03T16:35:09;9.60;92.00
51902;DHT22;37929;53.218;6.548;2023-04-03T16:37:37;9.60;92.20
51902;DHT22;37929;53.218;6.548;2023-04-03T16:40:06;9.60;92.40
51902;DHT22;37929;53.218;6.548;2023-04-03T16:42:33;9.40;92.10
51902;DHT22;37929;53.218;6.548;2023-04-03T16:44:58;9.50;92.90
51902;DHT22;37929;53.218;6.548;2023-04-03T16:47:28;9.50;92.80
51902;DHT22;37929;53.218;6.548;2023-04-03T16:49:54;9.40;92.90
51902;DHT22;37929;53.218;6.548;2023-04-03T16:52:19;9.20;93.60
51902;DHT22;37929;53.218;6.548;2023-04-03T16:54:46;9.30;93.30
51902;DHT22;37929;53.218;6.548;2023-04-03T16:57:11;9.20;93.50
51902;DHT22;37929;53.218;6.548;2023-04-03T16:59:41;9.20;93.60
51902;DHT22;37929;53.218;6.548;2023-04-03T17:02:09;9.10;93.60
51902;DHT22;37929;53.218;6.548;2023-04-03T17:04:37;9.00;93.70
51902;DHT22;37929;53.218;6.548;2023-04-03T17:07:03;8.90;93.80
51902;DHT22;37929;53.218;6.548;2023-04-03T17:09:32;8.80;94.30
51902;DHT22;37929;53.218;6.548;2023-04-03T17:12:04;8.80;94.40
51902;DHT22;37929;53.218;6.548;2023-04-03T17:14:30;8.60;94.80
51902;DHT22;37929;53.218;6.548;2023-04-03T17:16:56;8.60;95.20
51902;DHT22;37929;53.218;6.548;2023-04-03T17:20:03;8.60;95.10
51902;DHT22;37929;53.218;6.548;2023-04-03T17:22:32;8.60;95.80
51902;DHT22;37929;53.218;6.548;2023-04-03T17:25:14;8.50;95.90
51902;DHT22;37929;53.218;6.548;2023-04-03T17:27:41;8.50;96.80
51902;DHT22;37929;53.218;6.548;2023-04-03T17:30:13;8.40;96.30
51902;DHT22;37929;53.218;6.548;2023-04-03T17:32:43;8.00;96.30
51902;DHT22;37929;53.218;6.548;2023-04-03T17:35:09;8.30;96.90
51902;DHT22;37929;53.218;6.548;2023-04-03T17:37:35;8.20;97.20
51902;DHT22;37929;53.218;6.548;2023-04-03T17:40:04;8.20;97.90
51902;DHT22;37929;53.218;6.548;2023-04-03T17:42:35;7.90;97.50
51902;DHT22;37929;53.218;6.548;2023-04-03T17:45:01;8.10;97.90
51902;DHT22;37929;53.218;6.548;2023-04-03T17:47:27;8.10;98.30
51902;DHT22;37929;53.218;6.548;2023-04-03T17:49:59;8.30;98.80
51902;DHT22;37929;53.218;6.548;2023-04-03T17:52:28;8.00;99.60
51902;DHT22;37929;53.218;6.548;2023-04-03T17:55:00;7.90;99.40
51902;DHT22;37929;53.218;6.548;2023-04-03T17:57:26;7.90;99.90
51902;DHT22;37929;53.218;6.548;2023-04-03T17:59:52;7.80;99.80
51902;DHT22;37929;53.218;6.548;2023-04-03T18:02:26;7.80;99.90